Time;durP1;ratioP1;P1;durP2;ratioP2;P2;SDS_P1;SDS_P2;PMS_P1;PMS_P2;Temp;Humidity;BMP_temperature;BMP_pressure;BME280_temperature;BME280_humidity;BME280_pressure;Samples;Min_cycle;Max_cycle;Signal;HPM_P1;HPM_P2
2022/11/25 00:00:27;;;;;;;11.68;2.92;;;5.90;99.90;;;;;;4999226;28;20026;-67
2022/11/25 00:02:52;;;;;;;10.43;2.28;;;5.90;99.90;;;;;;4995557;28;20472;-67
2022/11/25 00:05:18;;;;;;;6.57;2.20;;;5.90;99.90;;;;;;4994088;28;20079;-67
2022/11/25 00:07:44;;;;;;;11.00;2.83;;;5.90;99.90;;;;;;4995275;28;21989;-67
2022/11/25 00:10:09;;;;;;;15.70;2.55;;;6.00;99.90;;;;;;4970809;28;20046;-67
2022/11/25 00:12:35;;;;;;;22.35;3.38;;;6.00;99.90;;;;;;4997639;28;20057;-68
2022/11/25 00:15:00;;;;;;;17.80;3.53;;;6.00;99.90;;;;;;5001815;28;20113;-68
2022/11/25 00:17:26;;;;;;;13.93;3.10;;;6.10;99.90;;;;;;5011847;28;20033;-67
2022/11/25 00:19:52;;;;;;;19.63;3.40;;;6.10;99.90;;;;;;5019254;28;20045;-67
2022/11/25 00:22:17;;;;;;;9.05;2.63;;;6.10;99.90;;;;;;5011501;28;20041;-67
2022/11/25 00:24:43;;;;;;;13.98;2.70;;;6.20;99.90;;;;;;5013365;28;20033;-67
2022/11/25 00:27:08;;;;;;;11.75;3.13;;;6.10;99.90;;;;;;5001100;28;20030;-67
2022/11/25 00:29:34;;;;;;;13.18;2.97;;;6.00;99.90;;;;;;5009553;28;20117;-67
2022/11/25 00:32:00;;;;;;;10.85;3.33;;;5.90;99.90;;;;;;5002073;28;20030;-67
2022/11/25 00:34:25;;;;;;;14.48;2.45;;;5.80;99.90;;;;;;5009687;28;20082;-67
2022/11/25 00:36:52;;;;;;;13.52;2.17;;;5.80;99.90;;;;;;5000405;28;20533;-68
2022/11/25 00:39:18;;;;;;;12.20;2.00;;;5.70;99.90;;;;;;4990858;28;20504;-67
2022/11/25 00:44:35;;;;;;;13.35;2.45;;;5.60;99.90;;;;;;5000703;28;20088;-67
2022/11/25 00:47:05;;;;;;;12.48;2.70;;;5.50;99.90;;;;;;4995314;28;20117;-67
2022/11/25 00:49:31;;;;;;;23.20;3.90;;;5.40;99.90;;;;;;4997367;28;20029;-67
2022/11/25 00:51:57;;;;;;;13.23;2.63;;;5.30;99.90;;;;;;5000657;28;20056;-68
2022/11/25 00:54:23;;;;;;;12.57;3.17;;;5.30;99.90;;;;;;5002144;28;20034;-68
2022/11/25 00:56:49;;;;;;;17.30;4.38;;;5.20;99.90;;;;;;4999619;28;20049;-67
2022/11/25 00:59:15;;;;;;;8.80;2.47;;;5.20;99.90;;;;;;4995305;28;20045;-67
2022/11/25 01:01:40;;;;;;;10.60;3.33;;;5.20;99.90;;;;;;5000499;28;20018;-67
2022/11/25 01:04:07;;;;;;;14.70;2.50;;;5.20;99.90;;;;;;5006118;28;20028;-67
2022/11/25 01:06:34;;;;;;;12.23;2.97;;;5.20;99.90;;;;;;4999045;28;20025;-66
2022/11/25 01:09:00;;;;;;;11.70;4.55;;;5.30;99.90;;;;;;4997815;28;20037;-67
2022/11/25 01:11:25;;;;;;;20.02;3.00;;;5.30;99.90;;;;;;4983227;28;20042;-69
2022/11/25 01:13:53;;;;;;;11.07;2.92;;;5.40;99.90;;;;;;4991864;28;20034;-68
2022/11/25 01:16:19;;;;;;;13.43;2.55;;;5.50;99.90;;;;;;5010894;28;20034;-67
2022/11/25 01:18:46;;;;;;;22.60;3.58;;;5.50;99.90;;;;;;5001946;28;20018;-67
2022/11/25 01:21:26;;;;;;;16.63;3.20;;;5.60;99.90;;;;;;5000446;28;20123;-67
2022/11/25 01:23:52;;;;;;;23.25;3.65;;;5.60;99.90;;;;;;5000156;28;20100;-67
2022/11/25 01:26:23;;;;;;;12.38;3.15;;;5.70;99.90;;;;;;5001251;28;20029;-67
2022/11/25 01:28:52;;;;;;;16.38;3.22;;;5.70;99.90;;;;;;4997619;28;20105;-67
2022/11/25 01:31:20;;;;;;;11.50;2.55;;;5.70;99.90;;;;;;5000901;28;20141;-67
2022/11/25 01:33:47;;;;;;;16.77;3.60;;;5.70;99.90;;;;;;4988554;28;20728;-67
2022/11/25 01:36:16;;;;;;;13.38;3.20;;;5.80;99.90;;;;;;4997355;28;20033;-67
2022/11/25 01:38:42;;;;;;;7.38;2.65;;;5.80;99.90;;;;;;4997697;28;20030;-67
2022/11/25 01:41:10;;;;;;;17.50;3.28;;;5.90;99.90;;;;;;4995087;28;20026;-68
2022/11/25 01:43:36;;;;;;;12.38;2.85;;;6.00;99.90;;;;;;4999418;28;20033;-67
2022/11/25 01:46:23;;;;;;;15.13;3.28;;;6.00;99.90;;;;;;5005148;28;20034;-68
2022/11/25 01:48:55;;;;;;;11.52;3.00;;;6.10;99.90;;;;;;5001544;28;20032;-67
2022/11/25 01:51:26;;;;;;;10.43;2.83;;;6.10;99.90;;;;;;5003573;28;20037;-67
2022/11/25 01:53:54;;;;;;;10.38;3.05;;;6.20;99.90;;;;;;4998554;28;20026;-68
2022/11/25 01:56:20;;;;;;;17.08;2.97;;;6.30;99.90;;;;;;4996829;28;20045;-67
2022/11/25 01:58:48;;;;;;;22.45;4.32;;;6.30;99.90;;;;;;5008005;28;20022;-68
2022/11/25 02:01:15;;;;;;;10.73;2.78;;;6.30;99.90;;;;;;5010444;28;20096;-67
2022/11/25 02:03:45;;;;;;;12.02;2.78;;;6.40;99.90;;;;;;5004608;28;20032;-68
2022/11/25 02:06:22;;;;;;;21.10;3.33;;;6.30;99.90;;;;;;5002498;28;20068;-67
2022/11/25 02:08:51;;;;;;;15.40;3.70;;;6.40;99.90;;;;;;5004836;28;20495;-68
2022/11/25 02:11:18;;;;;;;17.27;4.18;;;6.30;99.90;;;;;;4998311;28;20058;-68
2022/11/25 02:13:46;;;;;;;16.05;4.15;;;6.40;99.90;;;;;;5001025;28;20121;-68
2022/11/25 02:16:11;;;;;;;13.68;4.00;;;6.40;99.90;;;;;;5001609;28;20041;-67
2022/11/25 02:18:37;;;;;;;13.15;3.63;;;6.50;99.90;;;;;;5003924;28;20084;-67
2022/11/25 02:21:03;;;;;;;12.40;2.60;;;6.50;99.90;;;;;;5000710;28;20486;-67
2022/11/25 02:23:31;;;;;;;13.48;2.70;;;6.60;99.90;;;;;;5004284;28;20559;-67
2022/11/25 02:25:57;;;;;;;11.65;2.88;;;6.60;99.90;;;;;;4997604;28;20034;-67
2022/11/25 02:28:25;;;;;;;20.20;3.83;;;6.60;99.90;;;;;;5006352;28;20033;-67
2022/11/25 02:30:52;;;;;;;20.50;2.67;;;6.70;99.90;;;;;;5000675;28;20109;-67
2022/11/25 02:33:18;;;;;;;15.88;2.67;;;6.70;99.90;;;;;;5005934;28;20065;-67
2022/11/25 02:35:59;;;;;;;9.57;2.42;;;6.80;99.90;;;;;;4999191;28;20031;-67
2022/11/25 02:38:51;;;;;;;17.63;2.95;;;6.80;99.90;;;;;;4999207;28;20026;-67
2022/11/25 02:41:20;;;;;;;15.30;2.97;;;6.90;99.90;;;;;;5009755;28;20029;-67
2022/11/25 02:43:45;;;;;;;14.45;2.83;;;6.90;99.90;;;;;;5003126;28;20048;-67
2022/11/25 02:46:23;;;;;;;15.45;2.58;;;6.90;99.90;;;;;;5009602;28;20117;-68
2022/11/25 02:48:50;;;;;;;10.23;2.80;;;7.00;99.90;;;;;;5001730;28;20114;-67
2022/11/25 02:51:17;;;;;;;10.45;2.75;;;7.00;99.90;;;;;;5004352;28;20038;-68
2022/11/25 02:53:43;;;;;;;7.07;2.95;;;7.00;99.90;;;;;;4997511;28;20137;-68
2022/11/25 02:56:11;;;;;;;10.98;2.30;;;7.00;99.90;;;;;;4996932;28;20564;-67
2022/11/25 02:58:37;;;;;;;8.63;2.42;;;7.00;99.90;;;;;;4994402;28;20217;-67
2022/11/25 03:01:03;;;;;;;18.10;2.75;;;7.00;99.90;;;;;;5002628;28;20116;-68
2022/11/25 03:03:28;;;;;;;16.10;2.15;;;7.00;99.90;;;;;;5002359;28;20034;-67
2022/11/25 03:05:54;;;;;;;7.32;2.30;;;7.10;99.90;;;;;;5005742;28;20038;-68
2022/11/25 03:08:19;;;;;;;13.52;2.88;;;7.10;99.90;;;;;;5008680;28;20038;-67
2022/11/25 03:10:45;;;;;;;7.68;2.35;;;7.10;99.90;;;;;;4985536;28;20552;-68
2022/11/25 03:13:11;;;;;;;9.93;2.50;;;7.10;99.90;;;;;;4993259;28;20093;-68
2022/11/25 03:15:36;;;;;;;11.15;3.13;;;7.10;99.90;;;;;;5006382;28;20065;-67
2022/11/25 03:18:03;;;;;;;15.18;2.38;;;7.10;99.90;;;;;;5010838;28;20040;-68
2022/11/25 03:20:29;;;;;;;20.17;3.95;;;7.10;99.90;;;;;;4996018;28;20061;-67
2022/11/25 03:22:55;;;;;;;9.73;2.40;;;7.20;99.90;;;;;;5000516;28;20049;-68
2022/11/25 03:25:20;;;;;;;13.18;2.45;;;7.20;99.90;;;;;;4998768;28;20038;-68
2022/11/25 03:27:46;;;;;;;12.50;2.45;;;7.20;99.90;;;;;;5005684;28;20072;-67
2022/11/25 03:30:16;;;;;;;12.57;2.75;;;7.10;99.90;;;;;;5006723;28;20034;-67
2022/11/25 03:32:41;;;;;;;10.27;2.67;;;7.20;99.90;;;;;;4992650;28;20484;-66
2022/11/25 03:35:08;;;;;;;7.10;2.47;;;7.20;99.90;;;;;;4995943;28;20033;-68
2022/11/25 03:37:34;;;;;;;13.50;2.47;;;7.20;99.90;;;;;;5000147;28;20022;-67
2022/11/25 03:39:59;;;;;;;21.95;3.50;;;7.20;99.90;;;;;;4994023;28;20349;-68
2022/11/25 03:42:25;;;;;;;19.33;2.63;;;7.20;99.90;;;;;;5000087;28;20480;-68
2022/11/25 03:44:51;;;;;;;11.93;2.67;;;7.20;99.90;;;;;;5011356;28;20030;-68
2022/11/25 03:47:16;;;;;;;9.13;2.83;;;7.20;99.90;;;;;;4996499;28;20069;-68
2022/11/25 03:49:42;;;;;;;16.38;2.53;;;7.20;99.90;;;;;;4997960;28;20038;-67
2022/11/25 03:52:08;;;;;;;17.13;2.53;;;7.30;99.90;;;;;;5005502;28;20033;-67
2022/11/25 03:54:33;;;;;;;9.25;2.90;;;7.30;99.90;;;;;;4995184;28;20420;-67
2022/11/25 03:56:59;;;;;;;7.38;1.88;;;7.30;99.90;;;;;;5002029;28;20026;-67
2022/11/25 03:59:24;;;;;;;8.85;2.38;;;7.30;99.90;;;;;;5006910;28;20029;-67
2022/11/25 04:01:50;;;;;;;12.68;2.80;;;7.30;99.90;;;;;;5001934;28;20030;-67
2022/11/25 04:04:16;;;;;;;15.82;2.53;;;7.40;99.90;;;;;;5006412;28;20026;-67
2022/11/25 04:06:41;;;;;;;8.93;2.42;;;7.40;99.90;;;;;;4999097;28;20073;-67
2022/11/25 04:09:08;;;;;;;8.23;2.05;;;7.40;99.90;;;;;;5006121;28;20030;-67
2022/11/25 04:14:18;;;;;;;9.35;2.38;;;7.40;99.90;;;;;;4996536;28;20511;-68
2022/11/25 04:16:44;;;;;;;12.15;2.72;;;7.40;99.90;;;;;;5002323;28;20018;-68
2022/11/25 04:19:10;;;;;;;11.70;2.38;;;7.40;99.90;;;;;;5006249;28;20582;-67
2022/11/25 04:21:35;;;;;;;12.57;2.33;;;7.40;99.90;;;;;;5000705;28;20491;-68
2022/11/25 04:24:01;;;;;;;9.80;2.28;;;7.40;99.90;;;;;;4999718;28;20037;-67
2022/11/25 04:26:26;;;;;;;9.60;2.53;;;7.40;99.90;;;;;;5002622;28;20022;-68
2022/11/25 04:28:52;;;;;;;7.15;1.92;;;7.40;99.90;;;;;;5004244;28;20402;-67
2022/11/25 04:31:18;;;;;;;7.13;2.38;;;7.30;99.90;;;;;;5007587;28;20025;-67
2022/11/25 04:33:43;;;;;;;9.02;3.10;;;7.30;99.90;;;;;;4999796;28;20026;-67
2022/11/25 04:36:09;;;;;;;12.40;2.20;;;7.40;99.90;;;;;;5007727;28;20041;-68
2022/11/25 04:38:34;;;;;;;5.13;2.05;;;7.40;99.90;;;;;;5001557;28;20088;-67
2022/11/25 04:41:00;;;;;;;8.60;2.22;;;7.30;99.90;;;;;;5006520;28;20026;-68
2022/11/25 04:43:25;;;;;;;17.48;3.42;;;7.40;99.90;;;;;;5003674;28;20561;-67
2022/11/25 04:45:52;;;;;;;10.20;2.28;;;7.30;99.90;;;;;;4994873;28;20022;-68
2022/11/25 04:48:18;;;;;;;17.17;2.42;;;7.40;99.90;;;;;;5002106;28;20419;-67
2022/11/25 04:50:44;;;;;;;10.02;2.80;;;7.40;99.90;;;;;;4990536;28;20121;-67
2022/11/25 04:53:10;;;;;;;15.35;2.78;;;7.40;99.90;;;;;;4999733;28;20030;-67
2022/11/25 04:55:36;;;;;;;12.57;2.75;;;7.40;99.90;;;;;;5005299;28;20037;-68
2022/11/25 04:58:01;;;;;;;14.32;3.03;;;7.40;99.90;;;;;;5002072;28;20029;-67
2022/11/25 05:00:27;;;;;;;11.90;3.65;;;7.40;99.90;;;;;;5004389;28;20112;-67
2022/11/25 05:02:52;;;;;;;13.30;2.78;;;7.40;99.90;;;;;;5007603;28;20034;-66
2022/11/25 05:05:18;;;;;;;7.53;2.20;;;7.40;99.90;;;;;;5000352;28;20037;-66
2022/11/25 05:07:44;;;;;;;10.23;3.53;;;7.40;99.90;;;;;;5002021;28;20021;-66
2022/11/25 05:10:09;;;;;;;7.43;2.53;;;7.40;99.90;;;;;;4986718;28;20067;-67
2022/11/25 05:12:35;;;;;;;14.50;2.40;;;7.30;99.90;;;;;;4997414;28;20468;-66
2022/11/25 05:15:01;;;;;;;8.07;2.53;;;7.30;99.90;;;;;;4999587;28;20060;-66
2022/11/25 05:17:30;;;;;;;15.95;3.53;;;7.30;99.90;;;;;;5006150;28;20054;-67
2022/11/25 05:19:56;;;;;;;13.07;3.17;;;7.20;99.90;;;;;;5006067;28;20022;-68
2022/11/25 05:22:27;;;;;;;8.38;2.25;;;7.20;99.90;;;;;;4998806;28;20030;-66
2022/11/25 05:24:54;;;;;;;12.65;3.08;;;7.20;99.90;;;;;;5001486;28;20108;-66
2022/11/25 05:27:20;;;;;;;12.15;3.15;;;7.20;99.90;;;;;;5004308;28;20085;-66
2022/11/25 05:29:46;;;;;;;12.70;2.90;;;7.20;99.90;;;;;;4999539;28;20030;-67
2022/11/25 05:32:13;;;;;;;13.13;2.83;;;7.30;99.90;;;;;;5004656;28;20108;-66
2022/11/25 05:34:39;;;;;;;10.73;2.50;;;7.20;99.90;;;;;;5004438;28;20022;-66
2022/11/25 05:37:05;;;;;;;12.25;2.95;;;7.20;99.90;;;;;;5001244;28;20072;-67
2022/11/25 05:39:30;;;;;;;9.45;2.92;;;7.20;99.90;;;;;;5002232;28;20026;-65
2022/11/25 05:41:56;;;;;;;12.00;3.97;;;7.10;99.90;;;;;;5009113;28;20447;-66
2022/11/25 05:44:21;;;;;;;4.07;2.25;;;7.10;99.90;;;;;;5007947;28;20033;-66
2022/11/25 05:46:50;;;;;;;12.48;3.50;;;7.20;99.90;;;;;;4997155;28;20038;-66
2022/11/25 05:49:17;;;;;;;8.82;2.38;;;7.10;99.90;;;;;;5009598;28;20034;-67
2022/11/25 05:51:43;;;;;;;12.57;2.90;;;7.10;99.90;;;;;;5006471;28;20109;-66
2022/11/25 05:54:08;;;;;;;15.07;2.58;;;7.10;99.90;;;;;;5004260;28;20121;-67
2022/11/25 05:56:34;;;;;;;9.40;2.65;;;7.10;99.90;;;;;;5001432;28;20022;-67
2022/11/25 05:59:00;;;;;;;11.57;2.67;;;7.10;99.90;;;;;;5000157;28;20026;-66
2022/11/25 06:01:26;;;;;;;14.65;2.47;;;7.10;99.90;;;;;;5005133;28;20495;-67
2022/11/25 06:03:52;;;;;;;8.07;2.30;;;7.10;99.90;;;;;;5004728;28;20158;-67
2022/11/25 06:06:18;;;;;;;6.97;2.45;;;7.10;99.90;;;;;;5004604;28;20021;-67
2022/11/25 06:08:44;;;;;;;8.00;3.25;;;7.10;99.90;;;;;;5004910;28;20340;-67
2022/11/25 06:11:13;;;;;;;19.55;3.47;;;7.10;99.90;;;;;;4992815;28;20139;-67
2022/11/25 06:13:39;;;;;;;13.27;2.42;;;7.10;99.90;;;;;;5001662;28;20484;-66
2022/11/25 06:16:10;;;;;;;18.55;3.88;;;7.10;99.90;;;;;;5002593;28;20080;-67
2022/11/25 06:18:36;;;;;;;22.13;9.77;;;7.10;99.90;;;;;;5007975;28;20030;-67
2022/11/25 06:21:04;;;;;;;56.28;24.48;;;7.10;99.90;;;;;;5004344;28;20026;-67
2022/11/25 06:23:30;;;;;;;35.05;15.02;;;7.00;99.90;;;;;;5007126;28;20163;-67
2022/11/25 06:26:05;;;;;;;56.42;22.63;;;7.00;99.90;;;;;;4996011;28;20026;-67
2022/11/25 06:28:31;;;;;;;39.53;17.33;;;7.00;99.90;;;;;;5008694;28;20034;-67
2022/11/25 06:31:04;;;;;;;18.63;6.57;;;7.00;99.90;;;;;;5008321;28;20392;-67
2022/11/25 06:33:29;;;;;;;31.13;13.50;;;7.00;99.90;;;;;;5002131;28;20026;-67
2022/11/25 06:35:55;;;;;;;18.73;6.93;;;7.00;99.90;;;;;;5000251;28;20030;-67
2022/11/25 06:38:20;;;;;;;19.65;4.35;;;7.00;99.90;;;;;;5003154;28;20065;-66
2022/11/25 06:40:46;;;;;;;17.80;4.30;;;7.00;99.90;;;;;;5004275;28;20013;-66
2022/11/25 06:43:11;;;;;;;15.43;3.22;;;7.00;99.90;;;;;;5011929;28;20057;-66
2022/11/25 06:45:37;;;;;;;15.15;3.63;;;7.00;99.90;;;;;;5002549;28;20049;-67
2022/11/25 06:48:03;;;;;;;14.48;3.65;;;7.00;99.90;;;;;;5011822;28;20026;-67
2022/11/25 06:50:28;;;;;;;17.27;4.97;;;7.00;99.90;;;;;;5002204;28;20030;-67
2022/11/25 06:52:54;;;;;;;14.85;3.33;;;7.00;99.90;;;;;;4999919;28;20547;-67
2022/11/25 06:55:19;;;;;;;13.98;4.65;;;7.00;99.90;;;;;;5006371;28;20447;-67
2022/11/25 06:57:45;;;;;;;15.55;5.40;;;7.00;99.90;;;;;;5002094;28;20507;-67
2022/11/25 07:00:11;;;;;;;24.20;7.65;;;7.00;99.90;;;;;;4998458;28;20015;-68
2022/11/25 07:02:36;;;;;;;24.50;8.85;;;7.00;99.90;;;;;;5004646;28;20067;-67
2022/11/25 07:05:02;;;;;;;18.58;7.90;;;7.00;99.90;;;;;;5008605;28;20056;-67
2022/11/25 07:07:28;;;;;;;81.13;31.75;;;7.00;99.90;;;;;;5006328;28;20495;-67
2022/11/25 07:09:53;;;;;;;92.45;37.80;;;7.00;99.90;;;;;;4997507;28;20631;-67
2022/11/25 07:12:19;;;;;;;69.85;30.15;;;7.00;99.90;;;;;;4980196;28;20567;-67
2022/11/25 07:14:44;;;;;;;28.73;10.32;;;7.00;99.90;;;;;;5011207;28;20708;-67
2022/11/25 07:17:10;;;;;;;20.75;6.97;;;7.00;99.90;;;;;;5002796;28;20029;-67
2022/11/25 07:19:35;;;;;;;13.38;6.53;;;7.10;99.90;;;;;;5000661;28;20019;-67
2022/11/25 07:22:01;;;;;;;13.25;4.47;;;7.10;99.90;;;;;;5000631;28;20018;-67
2022/11/25 07:24:27;;;;;;;14.98;4.50;;;7.10;99.90;;;;;;5006665;28;20518;-67
2022/11/25 07:26:52;;;;;;;8.77;2.88;;;7.00;99.90;;;;;;5003932;28;20019;-66
2022/11/25 07:29:18;;;;;;;12.32;3.17;;;7.00;99.90;;;;;;4996621;28;20030;-67
2022/11/25 07:31:44;;;;;;;9.15;3.40;;;7.00;99.90;;;;;;5006969;28;20147;-66
2022/11/25 07:34:22;;;;;;;12.45;3.38;;;7.00;99.90;;;;;;5006163;28;20054;-67
2022/11/25 07:36:49;;;;;;;6.18;2.72;;;7.00;99.90;;;;;;5002270;28;20041;-67
2022/11/25 07:39:17;;;;;;;10.98;3.53;;;6.90;99.90;;;;;;5008007;28;20057;-67
2022/11/25 07:41:42;;;;;;;6.20;2.72;;;6.90;99.90;;;;;;4992685;28;20025;-68
2022/11/25 07:44:11;;;;;;;9.95;2.72;;;6.90;99.90;;;;;;4998193;28;20383;-67
2022/11/25 07:46:40;;;;;;;11.80;2.80;;;6.90;99.90;;;;;;5000572;28;20022;-68
2022/11/25 07:49:10;;;;;;;14.98;3.25;;;6.90;99.90;;;;;;5003337;28;20030;-67
2022/11/25 07:51:39;;;;;;;11.40;2.92;;;6.90;99.90;;;;;;5000014;28;20034;-67
2022/11/25 07:54:06;;;;;;;12.05;3.38;;;7.00;99.90;;;;;;5003677;28;20030;-67
2022/11/25 07:56:37;;;;;;;13.20;3.13;;;7.10;99.90;;;;;;5008768;28;20030;-67
2022/11/25 07:59:03;;;;;;;8.85;3.03;;;7.10;99.90;;;;;;4997680;28;20026;-67
2022/11/25 08:01:29;;;;;;;8.32;2.90;;;7.20;99.90;;;;;;5002541;28;20045;-67
2022/11/25 08:03:55;;;;;;;12.55;3.50;;;7.20;99.90;;;;;;5002839;28;20640;-68
2022/11/25 08:06:26;;;;;;;14.48;3.40;;;7.30;99.90;;;;;;5002372;28;20033;-67
2022/11/25 08:08:54;;;;;;;12.65;5.63;;;7.40;99.90;;;;;;4999089;28;20049;-67
2022/11/25 08:11:23;;;;;;;18.88;5.28;;;7.50;99.90;;;;;;4981685;28;20471;-67
2022/11/25 08:13:49;;;;;;;28.88;6.32;;;7.60;99.90;;;;;;4998527;28;20046;-67
2022/11/25 08:16:17;;;;;;;17.33;5.72;;;7.70;99.90;;;;;;4991561;28;20050;-67
2022/11/25 08:18:43;;;;;;;9.75;4.93;;;7.80;99.90;;;;;;5005008;28;20100;-67
2022/11/25 08:21:10;;;;;;;12.30;5.10;;;7.80;99.90;;;;;;4991251;28;20627;-67
2022/11/25 08:23:38;;;;;;;10.52;4.53;;;7.90;99.90;;;;;;4993383;28;20030;-67
2022/11/25 08:26:09;;;;;;;11.77;3.65;;;8.10;99.90;;;;;;5003108;28;20036;-67
2022/11/25 08:28:35;;;;;;;8.57;3.53;;;8.20;99.90;;;;;;5001988;28;20037;-67
2022/11/25 08:31:07;;;;;;;6.47;2.50;;;8.20;99.90;;;;;;5004753;28;20060;-67
2022/11/25 08:33:33;;;;;;;10.65;2.40;;;8.30;99.90;;;;;;5008250;28;20045;-67
2022/11/25 08:35:59;;;;;;;8.98;2.78;;;8.20;99.90;;;;;;5000009;28;20029;-67
2022/11/25 08:38:26;;;;;;;13.45;5.13;;;8.10;99.90;;;;;;5000592;28;20034;-67
2022/11/25 08:40:52;;;;;;;19.52;4.60;;;7.90;99.90;;;;;;4992984;28;20036;-67
2022/11/25 08:43:20;;;;;;;10.40;4.15;;;7.80;99.90;;;;;;5007471;28;20141;-67
2022/11/25 08:45:49;;;;;;;15.68;3.40;;;7.80;99.90;;;;;;5006993;28;20084;-67
2022/11/25 08:48:17;;;;;;;13.23;2.97;;;7.90;99.90;;;;;;5007957;28;20030;-67
2022/11/25 08:50:47;;;;;;;12.13;2.58;;;8.00;99.90;;;;;;5007964;28;20025;-67
2022/11/25 08:53:13;;;;;;;11.43;2.75;;;8.20;99.90;;;;;;5008567;28;20057;-67
2022/11/25 08:55:39;;;;;;;14.65;2.85;;;8.40;99.90;;;;;;5012053;28;20105;-67
2022/11/25 08:58:08;;;;;;;9.05;3.47;;;8.50;99.90;;;;;;5004016;28;20117;-67
2022/11/25 09:00:35;;;;;;;6.70;2.00;;;8.60;99.90;;;;;;5014568;28;20025;-67
2022/11/25 09:03:00;;;;;;;8.45;2.72;;;8.70;99.90;;;;;;4999420;28;20518;-67
2022/11/25 09:05:26;;;;;;;11.18;2.58;;;8.80;99.90;;;;;;5007158;28;20029;-67
2022/11/25 09:07:52;;;;;;;9.30;2.70;;;8.90;99.90;;;;;;5003814;28;20594;-68
2022/11/25 09:10:17;;;;;;;11.30;3.58;;;9.10;99.90;;;;;;4982963;28;20026;-67
2022/11/25 09:12:43;;;;;;;14.95;3.50;;;9.40;99.90;;;;;;4999277;28;20042;-67
2022/11/25 09:15:09;;;;;;;14.38;5.85;;;9.40;99.90;;;;;;5003211;28;20061;-68
2022/11/25 09:17:36;;;;;;;8.27;3.55;;;9.40;99.90;;;;;;5001456;28;20730;-67
2022/11/25 09:20:04;;;;;;;11.45;4.22;;;9.40;99.90;;;;;;5001564;28;20030;-67
2022/11/25 09:22:30;;;;;;;10.90;3.25;;;9.30;99.90;;;;;;5004342;28;20061;-67
2022/11/25 09:24:56;;;;;;;7.07;2.20;;;9.30;99.90;;;;;;4994529;28;20022;-67
2022/11/25 09:27:21;;;;;;;8.32;2.78;;;9.30;99.90;;;;;;5006134;28;20037;-67
2022/11/25 09:29:47;;;;;;;8.25;2.80;;;9.10;99.90;;;;;;5007312;28;20026;-67
2022/11/25 09:32:12;;;;;;;13.40;3.30;;;9.10;99.90;;;;;;4992964;28;20120;-67
2022/11/25 09:34:38;;;;;;;14.73;5.50;;;9.00;99.90;;;;;;4995168;28;20033;-67
2022/11/25 09:37:03;;;;;;;9.00;5.00;;;9.10;99.90;;;;;;5001829;28;20023;-67
2022/11/25 09:39:29;;;;;;;6.07;3.03;;;9.20;99.90;;;;;;5002531;28;20726;-68
2022/11/25 09:48:19;;;;;;;11.88;3.55;;;9.20;99.90;;;;;;5003481;28;20029;-67
2022/11/25 09:50:51;;;;;;;10.98;2.58;;;9.30;99.90;;;;;;4993514;28;20101;-67
2022/11/25 09:53:43;;;;;;;8.07;2.15;;;9.40;99.90;;;;;;4998246;28;20048;-67
2022/11/25 09:56:21;;;;;;;8.50;2.65;;;9.50;99.90;;;;;;5004222;28;20034;-67
2022/11/25 09:58:59;;;;;;;7.70;2.17;;;9.50;99.90;;;;;;5003257;28;20030;-67
2022/11/25 10:01:29;;;;;;;4.05;2.47;;;9.50;99.90;;;;;;5003922;28;20026;-67
2022/11/25 10:04:03;;;;;;;7.03;2.42;;;9.60;99.90;;;;;;5005203;28;20026;-68
2022/11/25 10:06:34;;;;;;;5.93;2.72;;;9.70;99.90;;;;;;5003313;28;20041;-68
2022/11/25 10:09:09;;;;;;;6.50;3.03;;;9.80;99.90;;;;;;5000569;28;20030;-67
2022/11/25 10:11:50;;;;;;;4.25;2.63;;;9.90;99.90;;;;;;4985510;28;20467;-68
2022/11/25 10:14:24;;;;;;;9.25;2.55;;;9.90;99.90;;;;;;4999225;28;20034;-67
2022/11/25 10:17:11;;;;;;;11.25;2.65;;;9.90;99.90;;;;;;5000557;28;20030;-67
2022/11/25 10:19:49;;;;;;;6.22;3.65;;;9.90;99.90;;;;;;4964542;28;20026;-68
2022/11/25 10:22:33;;;;;;;8.32;2.40;;;9.90;99.90;;;;;;4995086;28;20396;-68
2022/11/25 10:25:00;;;;;;;;;;;9.90;99.90;;;;;;4997345;28;20610;-67
2022/11/25 10:27:45;;;;;;;7.45;2.25;;;10.00;99.90;;;;;;5005203;28;20288;-66
2022/11/25 10:30:14;;;;;;;;;;;10.00;99.90;;;;;;5007365;28;20376;-68
2022/11/25 10:32:45;;;;;;;11.77;2.33;;;10.10;99.90;;;;;;4992317;28;19996;-68
2022/11/25 10:35:26;;;;;;;16.67;4.78;;;10.10;99.90;;;;;;5009586;28;20022;-67
2022/11/25 10:37:55;;;;;;;5.30;2.42;;;10.20;99.90;;;;;;4997995;28;20019;-67
2022/11/25 10:40:21;;;;;;;8.75;3.25;;;10.20;99.90;;;;;;5000701;28;20508;-67
2022/11/25 10:42:47;;;;;;;8.80;3.05;;;10.20;99.90;;;;;;4996282;28;20539;-68
2022/11/25 10:45:12;;;;;;;7.10;3.15;;;10.20;99.90;;;;;;5009845;28;20109;-67
2022/11/25 10:48:25;;;;;;;9.02;2.85;;;10.30;99.90;;;;;;5005241;28;20022;-67
2022/11/25 10:51:03;;;;;;;13.10;3.30;;;10.50;99.90;;;;;;4973873;28;20064;-67
2022/11/25 10:53:29;;;;;;;8.27;2.53;;;10.60;99.90;;;;;;5006866;28;20040;-68
2022/11/25 10:55:57;;;;;;;8.60;2.40;;;10.60;99.90;;;;;;5000147;28;20377;-68
2022/11/25 10:58:32;;;;;;;7.47;3.10;;;10.70;99.90;;;;;;4996036;28;20102;-68
2022/11/25 11:01:06;;;;;;;10.82;3.58;;;10.80;99.90;;;;;;4996911;28;20065;-68
2022/11/25 11:03:33;;;;;;;10.38;2.85;;;10.80;99.90;;;;;;5008668;28;20034;-67
2022/11/25 11:05:59;;;;;;;5.22;2.42;;;10.80;99.90;;;;;;5011350;28;20026;-68
2022/11/25 11:08:36;;;;;;;10.02;4.18;;;10.90;99.90;;;;;;5022316;23;20071;-66
2022/11/25 11:11:20;;;;;;;12.60;3.30;;;11.00;99.90;;;;;;5002192;28;20037;-67
2022/11/25 11:13:47;;;;;;;6.70;1.92;;;10.90;99.90;;;;;;5024601;28;20099;-67
2022/11/25 11:16:28;;;;;;;5.43;2.15;;;10.90;99.90;;;;;;5026380;28;20061;-67
2022/11/25 11:18:55;;;;;;;12.10;4.68;;;10.90;99.90;;;;;;5022029;28;20044;-66
2022/11/25 11:21:29;;;;;;;8.68;3.80;;;11.00;99.90;;;;;;5020170;28;20041;-63
2022/11/25 11:23:56;;;;;;;;;;;11.10;99.90;;;;;;5027310;28;20171;-66
2022/11/25 11:26:23;;;;;;;8.32;3.15;;;11.00;99.90;;;;;;5029373;28;19909;-66
2022/11/25 11:28:57;;;;;;;11.88;4.45;;;11.00;99.90;;;;;;5026371;28;20029;-67
2022/11/25 11:31:28;;;;;;;9.93;2.60;;;11.00;99.90;;;;;;5025176;28;20066;-66
2022/11/25 11:34:18;;;;;;;4.70;1.55;;;11.10;99.90;;;;;;5023617;28;20541;-65
2022/11/25 11:37:12;;;;;;;9.20;2.00;;;11.10;99.90;;;;;;5027510;28;20025;-65
2022/11/25 11:40:15;;;;;;;5.40;2.25;;;11.10;99.90;;;;;;5022231;28;20025;-66
2022/11/25 11:42:53;;;;;;;10.32;2.42;;;11.10;99.90;;;;;;5022383;28;20025;-65
2022/11/25 11:45:40;;;;;;;6.93;2.30;;;11.20;99.90;;;;;;5027056;28;20044;-65
2022/11/25 11:48:27;;;;;;;9.85;2.53;;;11.10;99.90;;;;;;5011702;28;20021;-65
2022/11/25 11:51:14;;;;;;;9.43;3.80;;;11.00;99.90;;;;;;5022100;28;20038;-65
2022/11/25 11:53:48;;;;;;;10.85;3.13;;;10.90;99.90;;;;;;5020757;28;20030;-65
2022/11/25 11:56:22;;;;;;;6.43;2.67;;;11.00;99.90;;;;;;5020818;28;20017;-65
2022/11/25 11:59:03;;;;;;;6.85;2.58;;;11.00;99.90;;;;;;5022088;28;20026;-65
2022/11/25 12:01:55;;;;;;;7.18;2.00;;;11.10;99.90;;;;;;5018794;28;20509;-65
2022/11/25 12:04:23;;;;;;;9.45;3.47;;;11.10;99.90;;;;;;5021660;28;20037;-65
2022/11/25 12:07:07;;;;;;;5.07;1.85;;;11.20;99.90;;;;;;5023981;28;20033;-65
2022/11/25 12:09:42;;;;;;;6.97;2.08;;;11.40;99.90;;;;;;5018917;28;20041;-65
2022/11/25 12:12:15;;;;;;;9.00;2.03;;;11.60;99.90;;;;;;4997611;28;20046;-65
2022/11/25 12:14:45;;;;;;;10.70;2.63;;;11.80;99.90;;;;;;5022383;28;20022;-65
2022/11/25 12:17:29;;;;;;;11.73;2.70;;;11.90;99.90;;;;;;5016623;28;20013;-66
2022/11/25 12:20:06;;;;;;;17.85;2.70;;;11.80;99.90;;;;;;5028331;28;20410;-64
2022/11/25 12:22:40;;;;;;;10.15;3.25;;;11.70;99.90;;;;;;5029769;28;20026;-65
2022/11/25 12:25:24;;;;;;;;;;;11.70;99.90;;;;;;5028521;28;20541;-65
2022/11/25 12:28:00;;;;;;;10.50;2.25;;;11.60;99.90;;;;;;5018286;28;19909;-65
2022/11/25 12:30:34;;;;;;;14.65;2.80;;;11.50;99.90;;;;;;5028647;28;20029;-65
2022/11/25 12:33:03;;;;;;;15.07;3.28;;;11.40;99.90;;;;;;5020691;28;20038;-65
2022/11/25 12:35:50;;;;;;;11.25;2.65;;;11.40;99.90;;;;;;5026985;28;20092;-64
2022/11/25 12:38:44;;;;;;;15.05;2.42;;;11.20;99.90;;;;;;5022809;28;20486;-65
2022/11/25 12:41:40;;;;;;;17.85;4.60;;;11.10;99.90;;;;;;5021321;28;20049;-63
2022/11/25 12:44:27;;;;;;;15.18;3.63;;;11.00;99.90;;;;;;5015940;28;20063;-65
2022/11/25 12:46:55;;;;;;;13.80;2.65;;;11.10;99.90;;;;;;5013855;28;20126;-65
2022/11/25 12:49:25;;;;;;;18.00;2.65;;;11.20;99.90;;;;;;5013505;28;20056;-65
2022/11/25 12:52:27;;;;;;;15.82;4.72;;;11.30;99.90;;;;;;5015554;28;20060;-65
2022/11/25 12:55:08;;;;;;;15.90;4.53;;;11.30;99.90;;;;;;5022782;28;20030;-65
2022/11/25 12:57:45;;;;;;;8.65;2.63;;;11.40;99.90;;;;;;5017105;28;20021;-65
2022/11/25 13:00:13;;;;;;;13.13;2.20;;;11.30;99.90;;;;;;5014493;28;21633;-65
2022/11/25 13:03:03;;;;;;;13.95;3.05;;;11.20;99.90;;;;;;5027893;28;20029;-65
2022/11/25 13:05:53;;;;;;;12.55;2.55;;;11.30;99.90;;;;;;5025496;28;20033;-65
2022/11/25 13:08:53;;;;;;;11.73;2.30;;;11.40;99.90;;;;;;5023972;28;20039;-65
2022/11/25 13:11:46;;;;;;;18.23;3.05;;;11.40;99.90;;;;;;4998853;28;20084;-65